createdAt,value
2022-12-20T00:01:54.625Z,-1.91
2022-12-20T00:04:22.766Z,-2.23
2022-12-20T00:06:50.812Z,-1.97
2022-12-20T00:09:18.889Z,-2.08
2022-12-20T00:11:47.219Z,-1.81
2022-12-20T00:14:15.238Z,-1.81
2022-12-20T00:16:43.309Z,-1.76
2022-12-20T00:19:12.227Z,-1.74
2022-12-20T00:21:40.223Z,-1.78
2022-12-20T00:24:08.661Z,-1.68
2022-12-20T00:26:38.184Z,-2.01
2022-12-20T00:29:07.171Z,-1.63
2022-12-20T00:31:35.711Z,-1.60
2022-12-20T00:34:03.890Z,-1.55
2022-12-20T00:36:33.647Z,-2.18
2022-12-20T00:39:02.304Z,-1.57
2022-12-20T00:41:34.325Z,-1.78
2022-12-20T00:44:03.802Z,-2.11
2022-12-20T00:46:32.339Z,-1.80
2022-12-20T00:49:01.156Z,-1.47
2022-12-20T00:51:30.417Z,-1.45
2022-12-20T00:53:58.734Z,-1.40
2022-12-20T00:56:27.185Z,-1.43
2022-12-20T00:59:00.391Z,-1.73
2022-12-20T01:01:32.333Z,-1.62
2022-12-20T01:04:00.891Z,-1.37
2022-12-20T01:06:30.231Z,-1.68
2022-12-20T01:08:59.183Z,-1.26
2022-12-20T01:11:33.395Z,-1.26
2022-12-20T01:14:09.844Z,-1.21
2022-12-20T01:16:45.292Z,-1.25
2022-12-20T01:19:18.541Z,-1.56
2022-12-20T01:21:47.314Z,-1.25
2022-12-20T01:24:18.766Z,-1.12
2022-12-20T01:26:47.840Z,-1.12
2022-12-20T01:29:17.071Z,-1.10
2022-12-20T01:31:46.081Z,-1.17
2022-12-20T01:34:14.376Z,-1.10
2022-12-20T01:36:42.697Z,-1.07
2022-12-20T01:39:16.905Z,-1.15
2022-12-20T01:41:46.202Z,-1.03
2022-12-20T01:44:17.997Z,-1.06
2022-12-20T01:46:47.944Z,-1.21
2022-12-20T01:49:29.115Z,-1.37
2022-12-20T01:52:04.997Z,-1.05
2022-12-20T01:54:47.385Z,-1.05
2022-12-20T01:57:38.764Z,-1.21
2022-12-20T02:00:10.120Z,-1.30
2022-12-20T02:02:47.847Z,-1.00
2022-12-20T02:05:22.931Z,-0.95
2022-12-20T02:07:55.728Z,-0.93
2022-12-20T02:10:32.688Z,-1.19
2022-12-20T02:13:17.765Z,-0.82
2022-12-20T02:16:07.162Z,-0.81
2022-12-20T02:19:05.997Z,-0.79
2022-12-20T02:21:53.836Z,-1.14
2022-12-20T02:24:57.348Z,-1.10
2022-12-20T02:27:50.560Z,-0.75
2022-12-20T02:30:22.336Z,-0.95
2022-12-20T02:33:15.105Z,-1.07
2022-12-20T02:35:43.549Z,-0.61
2022-12-20T02:38:30.947Z,-0.58
2022-12-20T02:41:10.001Z,-0.54
2022-12-20T02:44:00.431Z,-0.64
2022-12-20T02:46:29.348Z,-1.11
2022-12-20T02:49:02.794Z,-0.49
2022-12-20T02:51:32.821Z,-0.50
2022-12-20T02:54:01.803Z,-0.44
2022-12-20T02:56:48.530Z,-0.41
2022-12-20T02:59:26.021Z,-0.77
2022-12-20T03:01:56.410Z,-0.77
2022-12-20T03:04:34.926Z,-0.70
2022-12-20T03:07:14.059Z,-0.34
2022-12-20T03:09:45.108Z,-0.36
2022-12-20T03:12:16.451Z,-0.31
2022-12-20T03:14:44.629Z,-0.30
2022-12-20T03:17:14.628Z,-0.30
2022-12-20T03:19:43.621Z,-0.59
2022-12-20T03:22:12.588Z,-0.30
2022-12-20T03:24:41.192Z,-0.27
2022-12-20T03:27:14.228Z,-0.32
2022-12-20T03:29:42.811Z,-0.62
2022-12-20T03:32:10.677Z,-0.28
2022-12-20T03:34:39.235Z,-0.25
2022-12-20T03:37:07.446Z,-0.46
2022-12-20T03:39:35.369Z,-0.27
2022-12-20T03:42:03.612Z,-0.18
2022-12-20T03:44:31.676Z,-0.18
2022-12-20T03:47:00.154Z,-0.15
2022-12-20T03:49:28.336Z,-0.13
2022-12-20T03:51:56.573Z,-0.81
2022-12-20T03:54:24.560Z,-0.12
2022-12-20T03:57:11.385Z,-0.06
2022-12-20T03:59:40.240Z,-0.11
2022-12-20T04:02:11.307Z,-0.09
2022-12-20T04:04:39.930Z,-0.06
2022-12-20T04:07:08.815Z,-0.26
2022-12-20T04:09:39.228Z,-0.01
2022-12-20T04:12:12.577Z,-0.42
2022-12-20T04:14:41.048Z,-0.28
2022-12-20T04:17:09.710Z,0.01
2022-12-20T04:19:38.647Z,-0.33
2022-12-20T04:22:07.737Z,-0.18
2022-12-20T04:24:48.251Z,0.10
2022-12-20T04:27:23.187Z,0.03
2022-12-20T04:29:53.452Z,0.09
2022-12-20T04:32:22.355Z,0.09
2022-12-20T04:34:50.861Z,0.11
2022-12-20T04:37:20.423Z,0.09
2022-12-20T04:39:53.335Z,-0.02
2022-12-20T04:42:27.443Z,0.13
2022-12-20T04:44:56.861Z,0.12
2022-12-20T04:47:28.865Z,-0.23
2022-12-20T04:49:56.940Z,0.16
2022-12-20T04:52:47.961Z,0.17
2022-12-20T04:55:17.267Z,-0.12
2022-12-20T04:57:45.478Z,0.20
2022-12-20T05:00:15.607Z,-0.24
2022-12-20T05:02:46.488Z,0.23
2022-12-20T05:05:18.437Z,0.25
2022-12-20T05:07:52.660Z,0.24
2022-12-20T05:10:21.407Z,0.18
2022-12-20T05:12:50.925Z,-0.17
2022-12-20T05:15:29.675Z,-0.05
2022-12-20T05:17:59.759Z,0.34
2022-12-20T05:20:34.959Z,0.37
2022-12-20T05:23:22.394Z,0.34
2022-12-20T05:26:13.319Z,0.36
2022-12-20T05:28:41.567Z,0.30
2022-12-20T05:31:10.133Z,0.35
2022-12-20T05:33:38.695Z,0.13
2022-12-20T05:36:07.230Z,0.34
2022-12-20T05:38:35.338Z,0.38
2022-12-20T05:41:07.069Z,0.00
2022-12-20T05:43:35.067Z,0.36
2022-12-20T05:46:05.589Z,0.39
2022-12-20T05:48:42.766Z,0.07
2022-12-20T05:51:12.022Z,0.37
2022-12-20T05:53:59.066Z,0.42
2022-12-20T05:56:53.415Z,0.45
2022-12-20T05:59:28.243Z,0.47
2022-12-20T06:01:56.820Z,0.49
2022-12-20T06:04:25.565Z,0.49
2022-12-20T06:06:54.025Z,0.44
2022-12-20T06:09:22.029Z,-0.16
2022-12-20T06:11:59.971Z,0.45
2022-12-20T06:14:28.830Z,0.13
2022-12-20T06:16:58.018Z,0.52
2022-12-20T06:19:26.483Z,0.54
2022-12-20T06:22:01.053Z,0.42
2022-12-20T06:24:44.462Z,0.58
2022-12-20T06:27:16.749Z,0.58
2022-12-20T06:29:52.156Z,0.28
2022-12-20T06:32:23.548Z,0.60
2022-12-20T06:34:52.937Z,0.35
2022-12-20T06:37:20.898Z,0.65
2022-12-20T06:39:48.830Z,0.30
2022-12-20T06:42:17.383Z,0.27
2022-12-20T06:44:46.633Z,0.36
2022-12-20T06:47:14.711Z,0.74
2022-12-20T06:49:43.333Z,0.72
2022-12-20T06:52:21.771Z,0.74
2022-12-20T06:54:53.098Z,0.44
2022-12-20T06:57:22.711Z,0.35
2022-12-20T06:59:51.523Z,0.77
2022-12-20T07:02:19.871Z,0.80
2022-12-20T07:04:47.974Z,0.86
2022-12-20T07:07:17.374Z,0.59
2022-12-20T07:09:45.750Z,0.52
2022-12-20T07:12:13.955Z,0.91
2022-12-20T07:14:42.502Z,0.95
2022-12-20T07:17:11.156Z,0.60
2022-12-20T07:19:45.625Z,1.00
2022-12-20T07:22:17.113Z,0.95
2022-12-20T07:24:46.092Z,0.38
2022-12-20T07:27:14.237Z,1.09
2022-12-20T07:29:42.886Z,1.09
2022-12-20T07:32:14.597Z,0.88
2022-12-20T07:34:42.984Z,1.09
2022-12-20T07:37:12.030Z,0.82
2022-12-20T07:39:42.366Z,1.10
2022-12-20T07:42:11.826Z,1.01
2022-12-20T07:44:44.733Z,1.10
2022-12-20T07:47:12.675Z,1.11
2022-12-20T07:49:40.898Z,1.15
2022-12-20T07:52:14.443Z,0.74
2022-12-20T07:54:48.731Z,1.22
2022-12-20T07:57:25.891Z,0.76
2022-12-20T07:59:59.527Z,0.97
2022-12-20T08:02:37.719Z,1.14
2022-12-20T08:05:10.154Z,1.17
2022-12-20T08:07:42.330Z,1.08
2022-12-20T08:10:14.465Z,1.19
2022-12-20T08:12:45.717Z,1.14
2022-12-20T08:15:15.049Z,1.12
2022-12-20T08:17:43.148Z,1.00
2022-12-20T08:20:11.817Z,0.97
2022-12-20T08:22:39.972Z,1.35
2022-12-20T08:25:10.102Z,1.23
2022-12-20T08:27:39.073Z,1.18
2022-12-20T08:30:09.647Z,1.18
2022-12-20T08:32:38.325Z,1.19
2022-12-20T08:35:07.451Z,0.97
2022-12-20T08:37:35.714Z,1.28
2022-12-20T08:40:04.148Z,1.28
2022-12-20T08:42:32.816Z,1.30
2022-12-20T08:45:00.873Z,1.28
2022-12-20T08:47:30.298Z,0.92
2022-12-20T08:49:58.665Z,1.36
2022-12-20T08:52:28.655Z,1.89
2022-12-20T08:54:56.934Z,2.08
2022-12-20T08:57:25.202Z,1.96
2022-12-20T08:59:53.395Z,1.91
2022-12-20T09:02:21.630Z,1.90
2022-12-20T09:04:50.209Z,2.01
2022-12-20T09:07:18.236Z,1.78
2022-12-20T09:09:47.799Z,2.22
2022-12-20T09:12:15.930Z,2.10
2022-12-20T09:14:44.049Z,2.15
2022-12-20T09:17:12.585Z,2.43
2022-12-20T09:19:41.190Z,2.41
2022-12-20T09:22:09.680Z,2.58
2022-12-20T09:24:38.677Z,2.69
2022-12-20T09:27:07.123Z,2.84
2022-12-20T09:29:35.955Z,2.87
2022-12-20T09:32:05.310Z,3.09
2022-12-20T09:34:33.688Z,2.89
2022-12-20T09:37:02.060Z,2.80
2022-12-20T09:39:30.581Z,2.59
2022-12-20T09:41:59.683Z,2.72
2022-12-20T09:44:36.230Z,2.37
2022-12-20T09:47:14.489Z,2.46
2022-12-20T09:49:48.343Z,2.60
2022-12-20T09:52:49.340Z,2.30
2022-12-20T09:55:34.989Z,2.55
2022-12-20T09:58:58.130Z,2.42
2022-12-20T10:01:38.386Z,2.42
2022-12-20T10:04:27.755Z,2.39
2022-12-20T10:07:24.969Z,2.34
2022-12-20T10:10:02.024Z,2.42
2022-12-20T10:12:56.042Z,2.36
2022-12-20T10:15:41.453Z,2.20
2022-12-20T10:18:30.802Z,2.03
2022-12-20T10:21:38.995Z,2.22
2022-12-20T10:24:20.636Z,2.09
2022-12-20T10:26:52.948Z,2.01
2022-12-20T10:29:21.479Z,1.78
2022-12-20T10:32:00.613Z,1.88
2022-12-20T10:34:36.552Z,1.58
2022-12-20T10:37:16.479Z,1.84
2022-12-20T10:39:49.783Z,1.69
2022-12-20T10:42:41.470Z,1.54
2022-12-20T10:45:18.475Z,1.66
2022-12-20T10:47:48.864Z,1.63
2022-12-20T10:50:23.221Z,1.39
2022-12-20T10:53:24.930Z,1.69
2022-12-20T10:56:17.093Z,1.65
2022-12-20T10:58:56.170Z,2.08
2022-12-20T11:01:37.559Z,1.80
2022-12-20T11:04:25.760Z,2.01
2022-12-20T11:06:54.546Z,2.46
2022-12-20T11:09:57.909Z,2.65
2022-12-20T11:12:26.787Z,2.48
2022-12-20T11:15:34.533Z,2.68
2022-12-20T11:18:53.143Z,2.62
2022-12-20T11:22:15.044Z,2.08
2022-12-20T11:25:15.540Z,2.56
2022-12-20T11:29:01.013Z,2.93
2022-12-20T11:31:52.522Z,2.46
2022-12-20T11:34:56.319Z,2.28
2022-12-20T11:37:40.452Z,2.39
2022-12-20T11:40:41.989Z,2.82
2022-12-20T11:43:48.079Z,2.88
2022-12-20T11:47:23.191Z,3.13
2022-12-20T11:50:13.404Z,3.32
2022-12-20T11:52:55.324Z,3.50
2022-12-20T11:55:35.365Z,3.16
2022-12-20T11:58:19.841Z,3.29
2022-12-20T12:01:13.235Z,3.04
2022-12-20T12:04:16.504Z,3.23
2022-12-20T12:06:59.127Z,3.58
2022-12-20T12:09:47.318Z,3.91
2022-12-20T12:12:46.016Z,3.51
2022-12-20T12:15:37.593Z,3.11
2022-12-20T12:18:15.419Z,2.60
2022-12-20T12:21:10.492Z,2.92
2022-12-20T12:24:11.493Z,2.74
2022-12-20T12:26:41.300Z,2.69
2022-12-20T12:29:09.976Z,2.69
2022-12-20T12:32:09.038Z,2.71
2022-12-20T12:35:08.916Z,2.25
2022-12-20T12:38:16.582Z,2.18
2022-12-20T12:41:06.227Z,2.35
2022-12-20T12:44:13.425Z,2.21
2022-12-20T12:46:42.724Z,1.88
2022-12-20T12:49:25.789Z,2.19
2022-12-20T12:52:01.427Z,2.15
2022-12-20T12:54:41.482Z,2.18
2022-12-20T12:57:19.276Z,2.07
2022-12-20T12:59:50.390Z,1.69
2022-12-20T13:02:20.863Z,2.04
2022-12-20T13:05:26.016Z,1.99
2022-12-20T13:07:55.141Z,1.96
2022-12-20T13:10:29.874Z,1.89
2022-12-20T13:13:21.677Z,1.64
2022-12-20T13:15:52.143Z,1.80
2022-12-20T13:18:25.698Z,1.53
2022-12-20T13:21:32.856Z,1.80
2022-12-20T13:24:53.449Z,1.74
2022-12-20T13:27:31.754Z,1.71
2022-12-20T13:30:05.888Z,1.74
2022-12-20T13:32:49.328Z,1.71
2022-12-20T13:35:28.014Z,1.68
2022-12-20T13:38:04.991Z,1.66
2022-12-20T13:40:53.038Z,1.61
2022-12-20T13:43:22.105Z,1.59
2022-12-20T13:46:07.488Z,1.22
2022-12-20T13:48:38.729Z,1.50
2022-12-20T13:51:08.557Z,1.24
2022-12-20T13:53:38.213Z,1.45
2022-12-20T13:56:28.120Z,1.46
2022-12-20T13:58:59.239Z,1.10
2022-12-20T14:01:27.865Z,1.48
2022-12-20T14:03:56.681Z,1.06
2022-12-20T14:06:27.496Z,1.50
2022-12-20T14:08:56.156Z,1.13
2022-12-20T14:11:30.520Z,1.18
2022-12-20T14:14:02.428Z,1.48
2022-12-20T14:16:33.632Z,1.40
2022-12-20T14:19:07.136Z,1.47
2022-12-20T14:21:39.987Z,1.49
2022-12-20T14:24:22.201Z,1.53
2022-12-20T14:26:54.177Z,1.46
2022-12-20T14:29:32.606Z,1.53
2022-12-20T14:32:00.920Z,1.53
2022-12-20T14:34:38.248Z,1.33
2022-12-20T14:37:37.736Z,1.46
2022-12-20T14:40:12.754Z,1.46
2022-12-20T14:42:41.874Z,1.11
2022-12-20T14:45:10.442Z,1.45
2022-12-20T14:47:48.552Z,1.33
2022-12-20T14:50:43.119Z,1.32
2022-12-20T14:53:23.417Z,1.05
2022-12-20T14:55:52.957Z,1.38
2022-12-20T14:58:35.144Z,1.33
2022-12-20T15:01:18.743Z,1.37
2022-12-20T15:04:00.367Z,1.02
2022-12-20T15:06:42.697Z,0.92
2022-12-20T15:09:11.446Z,1.20
2022-12-20T15:11:42.165Z,0.97
2022-12-20T15:14:37.013Z,1.09
2022-12-20T15:17:13.771Z,0.96
2022-12-20T15:19:43.396Z,0.95
2022-12-20T15:22:20.674Z,0.58
2022-12-20T15:24:49.433Z,0.85
2022-12-20T15:27:18.268Z,0.37
2022-12-20T15:29:46.584Z,0.77
2022-12-20T15:32:31.522Z,0.64
2022-12-20T15:34:59.935Z,0.73
2022-12-20T15:37:28.535Z,0.44
2022-12-20T15:40:01.956Z,0.66
2022-12-20T15:42:37.840Z,0.36
2022-12-20T15:45:07.454Z,0.60
2022-12-20T15:47:36.044Z,0.52
2022-12-20T15:50:04.718Z,0.03
2022-12-20T15:52:33.385Z,0.49
2022-12-20T15:55:01.697Z,0.21
2022-12-20T15:57:33.693Z,0.61
2022-12-20T16:00:06.064Z,0.32
2022-12-20T16:02:40.890Z,0.58
2022-12-20T16:05:14.051Z,0.44
2022-12-20T16:07:42.643Z,0.59
2022-12-20T16:10:15.584Z,0.59
2022-12-20T16:12:43.929Z,0.62
2022-12-20T16:15:24.319Z,0.64
2022-12-20T16:17:52.817Z,0.70
2022-12-20T16:20:21.269Z,0.69
2022-12-20T16:22:49.670Z,0.41
2022-12-20T16:25:33.852Z,0.47
2022-12-20T16:28:03.227Z,0.69
2022-12-20T16:30:31.705Z,0.61
2022-12-20T16:33:00.056Z,0.68
2022-12-20T16:35:37.656Z,0.66
2022-12-20T16:38:06.064Z,0.44
2022-12-20T16:40:34.758Z,0.67
2022-12-20T16:43:03.300Z,0.71
2022-12-20T16:45:33.061Z,0.78
2022-12-20T16:48:06.254Z,0.80
2022-12-20T16:50:41.585Z,0.57
2022-12-20T16:53:15.663Z,0.80
2022-12-20T16:55:44.136Z,0.85
2022-12-20T16:58:12.843Z,0.90
2022-12-20T17:00:43.037Z,0.89
2022-12-20T17:03:14.590Z,0.88
2022-12-20T17:05:43.820Z,0.99
2022-12-20T17:11:01.346Z,0.83
2022-12-20T17:13:29.845Z,0.92
2022-12-20T17:15:58.240Z,1.11
2022-12-20T17:18:26.495Z,1.12
2022-12-20T17:20:55.124Z,1.13
2022-12-20T17:23:23.452Z,1.17
2022-12-20T17:25:54.443Z,1.18
2022-12-20T17:28:26.530Z,1.06
2022-12-20T17:30:55.044Z,0.87
2022-12-20T17:33:23.483Z,1.19
2022-12-20T17:35:51.645Z,0.82
2022-12-20T17:38:20.274Z,1.18
2022-12-20T17:40:48.793Z,1.23
2022-12-20T17:43:17.173Z,1.24
2022-12-20T17:45:45.831Z,1.04
2022-12-20T17:48:14.632Z,0.95
2022-12-20T17:50:43.478Z,1.23
2022-12-20T17:53:13.602Z,1.26
2022-12-20T17:55:42.399Z,1.25
2022-12-20T17:58:11.526Z,0.87
2022-12-20T18:00:41.164Z,1.13
2022-12-20T18:03:24.591Z,1.23
2022-12-20T18:06:07.682Z,1.24
2022-12-20T18:08:37.910Z,0.95
2022-12-20T18:11:06.679Z,1.27
2022-12-20T18:13:35.429Z,1.25
2022-12-20T18:16:17.752Z,1.23
2022-12-20T18:18:47.504Z,1.07
2022-12-20T18:21:21.999Z,1.27
2022-12-20T18:23:50.989Z,0.89
2022-12-20T18:26:31.622Z,0.78
2022-12-20T18:29:02.894Z,1.28
2022-12-20T18:31:34.938Z,1.34
2022-12-20T18:34:04.518Z,1.29
2022-12-20T18:36:35.860Z,1.37
2022-12-20T18:39:07.510Z,1.31
2022-12-20T18:41:36.210Z,1.30
2022-12-20T18:44:07.029Z,1.32
2022-12-20T18:46:35.465Z,1.26
2022-12-20T18:49:06.844Z,1.32
2022-12-20T18:51:39.463Z,0.92
2022-12-20T18:54:10.608Z,1.27
2022-12-20T18:56:40.079Z,1.23
2022-12-20T18:59:12.956Z,1.02
2022-12-20T19:01:43.185Z,1.29
2022-12-20T19:04:20.792Z,1.30
2022-12-20T19:06:52.998Z,1.06
2022-12-20T19:09:22.469Z,0.97
2022-12-20T19:11:56.574Z,1.31
2022-12-20T19:14:29.803Z,0.96
2022-12-20T19:16:58.205Z,1.10
2022-12-20T19:19:26.814Z,1.29
2022-12-20T19:21:55.634Z,1.43
2022-12-20T19:24:24.142Z,1.46
2022-12-20T19:26:52.673Z,1.15
2022-12-20T19:29:21.403Z,1.49
2022-12-20T19:31:49.916Z,1.18
2022-12-20T19:34:18.353Z,1.51
2022-12-20T19:36:48.603Z,1.48
2022-12-20T19:39:23.593Z,1.48
2022-12-20T19:42:22.162Z,1.50
2022-12-20T19:44:42.016Z,1.14
2022-12-20T19:47:11.607Z,1.52
2022-12-20T19:49:39.920Z,0.95
2022-12-20T19:52:08.666Z,1.50
2022-12-20T19:54:37.227Z,1.47
2022-12-20T19:57:05.712Z,1.47
2022-12-20T19:59:34.202Z,1.35
2022-12-20T20:02:03.195Z,1.45
2022-12-20T20:04:35.111Z,1.52
2022-12-20T20:07:04.827Z,1.50
2022-12-20T20:09:39.001Z,1.48
2022-12-20T20:12:08.845Z,1.30
2022-12-20T20:14:37.301Z,1.40
2022-12-20T20:17:05.695Z,1.18
2022-12-20T20:19:34.263Z,1.45
2022-12-20T20:22:03.322Z,1.39
2022-12-20T20:24:32.439Z,1.41
2022-12-20T20:27:00.971Z,1.33
2022-12-20T20:29:29.103Z,1.10
2022-12-20T20:31:57.890Z,1.26
2022-12-20T20:34:26.135Z,1.37
2022-12-20T20:36:54.772Z,0.85
2022-12-20T20:39:23.409Z,0.85
2022-12-20T20:41:51.765Z,1.05
2022-12-20T20:44:28.719Z,1.25
2022-12-20T20:47:00.210Z,1.23
2022-12-20T20:49:28.586Z,1.29
2022-12-20T20:51:57.133Z,0.90
2022-12-20T20:54:25.717Z,1.28
2022-12-20T20:56:53.948Z,1.17
2022-12-20T20:59:22.916Z,1.24
2022-12-20T21:01:51.273Z,1.26
2022-12-20T21:04:19.889Z,1.26
2022-12-20T21:06:48.281Z,1.29
2022-12-20T21:09:17.136Z,0.93
2022-12-20T21:11:45.677Z,1.27
2022-12-20T21:14:14.173Z,1.02
2022-12-20T21:16:42.910Z,1.35
2022-12-20T21:19:11.722Z,1.33
2022-12-20T21:21:40.245Z,1.38
2022-12-20T21:24:09.110Z,1.06
2022-12-20T21:26:38.113Z,1.30
2022-12-20T21:29:06.532Z,1.38
2022-12-20T21:31:36.382Z,1.28
2022-12-20T21:34:05.000Z,1.09
2022-12-20T21:36:33.301Z,1.31
2022-12-20T21:39:02.064Z,1.28
2022-12-20T21:41:30.808Z,0.96
2022-12-20T21:44:00.753Z,0.75
2022-12-20T21:46:32.321Z,1.30
2022-12-20T21:49:01.195Z,1.23
2022-12-20T21:51:31.166Z,1.20
2022-12-20T21:54:01.486Z,0.85
2022-12-20T21:56:36.729Z,1.09
2022-12-20T21:59:05.538Z,0.92
2022-12-20T22:01:34.226Z,1.05
2022-12-20T22:04:05.683Z,1.01
2022-12-20T22:06:35.656Z,0.94
2022-12-20T22:09:07.613Z,0.98
2022-12-20T22:11:37.481Z,0.92
2022-12-20T22:14:06.827Z,1.02
2022-12-20T22:16:35.505Z,1.03
2022-12-20T22:19:05.066Z,1.01
2022-12-20T22:21:34.193Z,0.75
2022-12-20T22:24:02.967Z,1.05
2022-12-20T22:26:33.804Z,1.07
2022-12-20T22:29:05.966Z,1.14
2022-12-20T22:31:35.936Z,1.14
2022-12-20T22:34:05.229Z,0.98
2022-12-20T22:36:33.729Z,0.65
2022-12-20T22:39:02.479Z,0.92
2022-12-20T22:41:35.067Z,0.97
2022-12-20T22:44:04.439Z,0.76
2022-12-20T22:46:33.043Z,0.94
2022-12-20T22:49:02.130Z,0.98
2022-12-20T22:51:33.986Z,0.99
2022-12-20T22:54:02.792Z,1.00
2022-12-20T22:56:31.028Z,1.02
2022-12-20T22:58:59.415Z,0.71
2022-12-20T23:01:27.996Z,1.09
2022-12-20T23:03:56.261Z,0.97
2022-12-20T23:06:24.828Z,1.06
2022-12-20T23:08:53.356Z,1.08
2022-12-20T23:11:48.247Z,0.81
2022-12-20T23:14:39.422Z,1.13
2022-12-20T23:17:11.385Z,1.05
2022-12-20T23:19:58.597Z,0.85
2022-12-20T23:22:45.610Z,1.11
2022-12-20T23:25:16.414Z,1.09
2022-12-20T23:27:47.867Z,1.06
2022-12-20T23:30:21.841Z,1.06
2022-12-20T23:32:51.159Z,1.01
2022-12-20T23:35:20.852Z,0.98
2022-12-20T23:37:49.699Z,1.02
2022-12-20T23:40:18.688Z,0.67
2022-12-20T23:42:46.723Z,0.86
2022-12-20T23:45:14.821Z,0.83
2022-12-20T23:47:42.840Z,0.92
2022-12-20T23:50:11.426Z,0.89
2022-12-20T23:52:39.644Z,0.92
2022-12-20T23:55:10.267Z,0.84
2022-12-20T23:57:38.415Z,0.62
